createdAt,value
2023-05-04T00:00:21.066Z,9.65
2023-05-04T00:03:09.165Z,9.64
2023-05-04T00:05:36.896Z,9.62
2023-05-04T00:08:05.304Z,9.63
2023-05-04T00:10:33.167Z,9.63
2023-05-04T00:13:00.950Z,9.64
2023-05-04T00:15:30.490Z,9.65
2023-05-04T00:17:58.326Z,9.65
2023-05-04T00:20:26.178Z,9.64
2023-05-04T00:22:54.374Z,9.63
2023-05-04T00:25:22.125Z,9.61
2023-05-04T00:27:49.794Z,9.60
2023-05-04T00:30:17.466Z,9.59
2023-05-04T00:32:45.275Z,9.59
2023-05-04T00:35:13.158Z,9.58
2023-05-04T00:37:43.815Z,9.55
2023-05-04T00:40:12.201Z,9.54
2023-05-04T00:42:39.869Z,9.51
2023-05-04T00:45:08.162Z,9.49
2023-05-04T00:47:36.299Z,9.48
2023-05-04T00:50:05.154Z,9.48
2023-05-04T00:52:35.055Z,9.48
2023-05-04T00:55:03.287Z,9.50
2023-05-04T00:57:31.035Z,9.53
2023-05-04T00:59:58.803Z,9.55
2023-05-04T01:02:26.677Z,9.54
2023-05-04T01:04:54.509Z,9.52
2023-05-04T01:07:50.951Z,9.48
2023-05-04T01:10:35.825Z,9.47
2023-05-04T01:13:15.202Z,9.49
2023-05-04T01:15:43.336Z,9.51
2023-05-04T01:18:11.954Z,9.53
2023-05-04T01:20:39.953Z,9.52
2023-05-04T01:23:08.258Z,9.51
2023-05-04T01:25:46.399Z,9.49
2023-05-04T01:28:22.398Z,9.46
2023-05-04T01:30:56.001Z,9.45
2023-05-04T01:33:24.711Z,9.44
2023-05-04T01:35:52.591Z,9.45
2023-05-04T01:38:20.428Z,9.47
2023-05-04T01:40:48.126Z,9.46
2023-05-04T01:43:16.249Z,9.46
2023-05-04T01:45:44.443Z,9.45
2023-05-04T01:48:12.405Z,9.45
2023-05-04T01:50:40.098Z,9.45
2023-05-04T01:53:07.843Z,9.44
2023-05-04T01:55:35.598Z,9.46
2023-05-04T01:58:03.857Z,9.46
2023-05-04T02:00:32.203Z,9.47
2023-05-04T02:03:00.114Z,9.47
2023-05-04T02:05:28.009Z,9.45
2023-05-04T02:07:56.175Z,9.44
2023-05-04T02:10:24.426Z,9.45
2023-05-04T02:12:52.861Z,9.47
2023-05-04T02:15:20.888Z,9.47
2023-05-04T02:17:48.671Z,9.46
2023-05-04T02:20:16.568Z,9.45
2023-05-04T02:22:45.172Z,9.44
2023-05-04T02:25:13.380Z,9.43
2023-05-04T02:27:41.084Z,9.42
2023-05-04T02:30:09.742Z,9.43
2023-05-04T02:32:37.582Z,9.44
2023-05-04T02:35:05.650Z,9.46
2023-05-04T02:37:34.070Z,9.46
2023-05-04T02:40:02.397Z,9.42
2023-05-04T02:42:30.272Z,9.40
2023-05-04T02:44:57.982Z,9.40
2023-05-04T02:47:25.699Z,9.41
2023-05-04T02:49:53.570Z,9.42
2023-05-04T02:52:21.679Z,9.40
2023-05-04T02:54:52.365Z,9.40
2023-05-04T02:57:20.924Z,9.40
2023-05-04T02:59:48.661Z,9.40
2023-05-04T03:02:16.389Z,9.41
2023-05-04T03:04:44.099Z,9.40
2023-05-04T03:07:11.930Z,9.39
2023-05-04T03:09:39.615Z,9.38
2023-05-04T03:12:07.309Z,9.39
2023-05-04T03:14:35.044Z,9.40
2023-05-04T03:17:02.764Z,9.39
2023-05-04T03:19:30.844Z,9.41
2023-05-04T03:21:58.558Z,9.42
2023-05-04T03:24:26.329Z,9.42
2023-05-04T03:26:54.791Z,9.43
2023-05-04T03:29:22.529Z,9.42
2023-05-04T03:31:50.911Z,9.42
2023-05-04T03:34:21.696Z,9.42
2023-05-04T03:36:49.806Z,9.42
2023-05-04T03:39:18.073Z,9.41
2023-05-04T03:41:45.779Z,9.41
2023-05-04T03:44:13.488Z,9.43
2023-05-04T03:46:41.822Z,9.46
2023-05-04T03:49:09.518Z,9.48
2023-05-04T03:51:37.242Z,9.51
2023-05-04T03:54:05.011Z,9.51
2023-05-04T03:56:32.673Z,9.52
2023-05-04T03:59:00.422Z,9.53
2023-05-04T04:01:28.598Z,9.56
2023-05-04T04:03:56.868Z,9.57
2023-05-04T04:06:24.645Z,9.59
2023-05-04T04:08:52.342Z,9.60
2023-05-04T04:11:20.060Z,9.63
2023-05-04T04:13:48.797Z,9.62
2023-05-04T04:16:16.608Z,9.64
2023-05-04T04:18:44.326Z,9.66
2023-05-04T04:21:12.491Z,9.67
2023-05-04T04:23:40.237Z,9.67
2023-05-04T04:26:08.480Z,9.67
2023-05-04T04:28:36.821Z,9.70
2023-05-04T04:31:04.648Z,9.71
2023-05-04T04:33:32.983Z,9.72
2023-05-04T04:36:00.661Z,9.76
2023-05-04T04:38:28.435Z,9.79
2023-05-04T04:40:56.654Z,9.82
2023-05-04T04:43:24.843Z,9.86
2023-05-04T04:45:54.054Z,9.90
2023-05-04T04:48:23.042Z,9.92
2023-05-04T04:50:50.970Z,9.92
2023-05-04T04:53:19.041Z,9.95
2023-05-04T04:55:47.777Z,9.99
2023-05-04T04:58:16.421Z,10.05
2023-05-04T05:00:45.454Z,10.10
2023-05-04T05:03:13.574Z,10.18
2023-05-04T05:05:41.566Z,10.22
2023-05-04T05:08:09.216Z,10.24
2023-05-04T05:10:37.502Z,10.30
2023-05-04T05:13:06.835Z,10.34
2023-05-04T05:15:35.061Z,10.38
2023-05-04T05:18:03.183Z,10.42
2023-05-04T05:20:30.932Z,10.50
2023-05-04T05:22:59.012Z,10.53
2023-05-04T05:25:27.467Z,10.54
2023-05-04T05:27:55.763Z,10.58
2023-05-04T05:30:23.578Z,10.67
2023-05-04T05:32:51.373Z,10.73
2023-05-04T05:35:19.117Z,10.79
2023-05-04T05:37:48.882Z,10.84
2023-05-04T05:40:18.684Z,10.91
2023-05-04T05:42:46.972Z,11.02
2023-05-04T05:45:14.993Z,11.08
2023-05-04T05:47:42.827Z,11.14
2023-05-04T05:50:13.926Z,11.21
2023-05-04T05:52:41.702Z,11.24
2023-05-04T05:55:10.155Z,11.28
2023-05-04T05:57:38.314Z,11.33
2023-05-04T06:00:07.149Z,11.41
2023-05-04T06:02:35.334Z,11.49
2023-05-04T06:05:03.717Z,11.56
2023-05-04T06:07:31.572Z,11.66
2023-05-04T06:09:59.969Z,11.74
2023-05-04T06:12:28.268Z,11.79
2023-05-04T06:14:56.206Z,11.86
2023-05-04T06:17:23.977Z,11.90
2023-05-04T06:19:52.105Z,11.95
2023-05-04T06:22:20.381Z,11.98
2023-05-04T06:24:48.177Z,11.98
2023-05-04T06:27:16.460Z,11.99
2023-05-04T06:29:44.140Z,12.02
2023-05-04T06:32:11.861Z,12.00
2023-05-04T06:34:40.050Z,11.98
2023-05-04T06:37:07.728Z,11.92
2023-05-04T06:39:35.619Z,11.80
2023-05-04T06:42:03.872Z,11.71
2023-05-04T06:44:37.419Z,11.58
2023-05-04T06:47:05.042Z,11.46
2023-05-04T06:49:33.984Z,11.37
2023-05-04T06:52:02.072Z,11.31
2023-05-04T06:54:31.860Z,11.26
2023-05-04T06:57:03.484Z,11.25
2023-05-04T06:59:31.392Z,11.25
2023-05-04T07:01:59.115Z,11.24
2023-05-04T07:04:27.357Z,11.24
2023-05-04T07:06:55.605Z,11.24
2023-05-04T07:09:23.326Z,11.23
2023-05-04T07:11:51.079Z,11.19
2023-05-04T07:14:18.780Z,11.16
2023-05-04T07:16:47.141Z,11.12
2023-05-04T07:19:14.878Z,11.11
2023-05-04T07:21:43.361Z,11.16
2023-05-04T07:24:11.130Z,11.24
2023-05-04T07:26:38.992Z,11.27
2023-05-04T07:29:07.152Z,11.30
2023-05-04T07:31:35.415Z,11.35
2023-05-04T07:34:03.153Z,11.41
2023-05-04T07:36:31.587Z,11.51
2023-05-04T07:38:59.318Z,11.61
2023-05-04T07:41:27.454Z,11.74
2023-05-04T07:43:55.597Z,11.86
2023-05-04T07:46:23.285Z,11.95
2023-05-04T07:48:51.128Z,12.10
2023-05-04T07:51:20.047Z,12.29
2023-05-04T07:53:48.199Z,12.54
2023-05-04T07:56:15.897Z,12.72
2023-05-04T07:58:44.140Z,12.87
2023-05-04T08:01:12.539Z,12.95
2023-05-04T08:03:40.263Z,13.02
2023-05-04T08:06:08.559Z,13.10
2023-05-04T08:08:36.313Z,13.10
2023-05-04T08:11:18.520Z,13.05
2023-05-04T08:13:49.340Z,12.95
2023-05-04T08:16:17.308Z,12.90
2023-05-04T08:18:45.514Z,12.81
2023-05-04T08:21:13.328Z,12.74
2023-05-04T08:23:41.038Z,12.68
2023-05-04T08:26:09.271Z,12.63
2023-05-04T08:28:39.528Z,12.64
2023-05-04T08:31:09.808Z,12.63
2023-05-04T08:33:38.025Z,12.61
2023-05-04T08:36:07.831Z,12.60
2023-05-04T08:38:36.197Z,12.61
2023-05-04T08:41:07.366Z,12.59
2023-05-04T08:43:36.795Z,12.59
2023-05-04T08:46:06.224Z,12.63
2023-05-04T08:48:37.600Z,12.65
2023-05-04T08:51:07.149Z,12.70
2023-05-04T08:53:37.475Z,12.75
2023-05-04T08:56:09.321Z,12.81
2023-05-04T08:58:43.920Z,12.86
2023-05-04T09:01:12.752Z,12.95
2023-05-04T09:03:41.418Z,13.01
2023-05-04T09:06:09.775Z,13.05
2023-05-04T09:08:37.584Z,13.09
2023-05-04T09:11:12.922Z,13.15
2023-05-04T09:17:13.634Z,13.22
2023-05-04T09:19:44.153Z,13.22
2023-05-04T09:22:20.238Z,13.17
2023-05-04T09:28:14.216Z,13.01
2023-05-04T09:31:06.688Z,13.00
2023-05-04T09:33:34.796Z,12.97
2023-05-04T09:36:21.143Z,12.92
2023-05-04T09:38:49.645Z,12.89
2023-05-04T09:41:17.418Z,12.87
2023-05-04T09:43:45.134Z,12.87
2023-05-04T09:46:19.764Z,12.86
2023-05-04T09:48:57.649Z,12.87
2023-05-04T09:51:30.437Z,12.92
2023-05-04T09:54:03.200Z,13.00
2023-05-04T09:56:38.709Z,13.08
2023-05-04T09:59:06.626Z,13.18
2023-05-04T10:01:35.226Z,13.23
2023-05-04T10:04:04.568Z,13.28
2023-05-04T10:06:33.136Z,13.26
2023-05-04T10:09:01.984Z,13.26
2023-05-04T10:11:30.921Z,13.27
2023-05-04T10:13:58.748Z,13.33
2023-05-04T10:16:50.407Z,13.35
2023-05-04T10:19:27.852Z,13.36
2023-05-04T10:22:23.542Z,13.35
2023-05-04T10:25:19.812Z,13.36
2023-05-04T10:28:07.823Z,13.43
2023-05-04T10:30:36.799Z,13.52
2023-05-04T10:33:04.627Z,13.55
2023-05-04T10:35:32.681Z,13.59
2023-05-04T10:38:00.878Z,13.62
2023-05-04T10:40:39.441Z,13.61
2023-05-04T10:43:08.830Z,13.57
2023-05-04T10:45:44.024Z,13.56
2023-05-04T10:48:12.746Z,13.60
2023-05-04T10:50:44.333Z,13.63
2023-05-04T10:53:13.466Z,13.64
2023-05-04T10:55:46.846Z,13.67
2023-05-04T10:58:21.479Z,13.77
2023-05-04T11:00:51.859Z,13.88
2023-05-04T11:03:22.564Z,14.01
2023-05-04T11:05:52.888Z,14.12
2023-05-04T11:08:25.968Z,14.19
2023-05-04T11:11:02.679Z,14.18
2023-05-04T11:13:32.037Z,14.14
2023-05-04T11:16:00.494Z,14.05
2023-05-04T11:18:35.046Z,13.91
2023-05-04T11:21:03.397Z,13.84
2023-05-04T11:23:31.528Z,13.84
2023-05-04T11:26:06.925Z,13.84
2023-05-04T11:28:37.503Z,13.88
2023-05-04T11:31:16.259Z,13.91
2023-05-04T11:33:55.071Z,13.92
2023-05-04T11:36:23.343Z,13.94
2023-05-04T11:38:51.597Z,13.96
2023-05-04T11:41:26.131Z,14.00
2023-05-04T11:43:54.260Z,13.96
2023-05-04T11:46:25.345Z,13.94
2023-05-04T11:48:56.185Z,13.94
2023-05-04T11:51:27.056Z,13.95
2023-05-04T11:53:55.873Z,13.96
2023-05-04T11:56:26.162Z,13.97
2023-05-04T11:58:53.876Z,13.95
2023-05-04T12:01:21.833Z,13.96
2023-05-04T12:03:57.313Z,13.95
2023-05-04T12:06:33.448Z,13.94
2023-05-04T12:09:04.451Z,13.94
2023-05-04T12:11:32.901Z,13.95
2023-05-04T12:14:11.925Z,13.95
2023-05-04T12:16:53.760Z,13.95
2023-05-04T12:19:22.157Z,13.96
2023-05-04T12:21:52.276Z,13.99
2023-05-04T12:24:24.469Z,14.02
2023-05-04T12:26:52.525Z,14.03
2023-05-04T12:29:20.271Z,14.06
2023-05-04T12:31:48.604Z,14.08
2023-05-04T12:34:16.997Z,14.09
2023-05-04T12:36:45.184Z,14.12
2023-05-04T12:39:12.943Z,14.16
2023-05-04T12:41:41.098Z,14.16
2023-05-04T12:44:11.551Z,14.13
2023-05-04T12:46:39.818Z,14.14
2023-05-04T12:49:08.055Z,14.17
2023-05-04T12:51:36.581Z,14.22
2023-05-04T12:54:04.370Z,14.23
2023-05-04T12:56:33.725Z,14.24
2023-05-04T12:59:01.515Z,14.25
2023-05-04T13:01:29.240Z,14.25
2023-05-04T13:03:57.414Z,14.29
2023-05-04T13:06:25.824Z,14.33
2023-05-04T13:08:53.512Z,14.33
2023-05-04T13:11:21.218Z,14.32
2023-05-04T13:13:49.009Z,14.32
2023-05-04T13:16:17.460Z,14.31
2023-05-04T13:18:45.775Z,14.30
2023-05-04T13:21:13.461Z,14.34
2023-05-04T13:23:41.200Z,14.41
2023-05-04T13:26:08.881Z,14.43
2023-05-04T13:28:38.656Z,14.43
2023-05-04T13:31:08.932Z,14.44
2023-05-04T13:33:40.229Z,14.47
2023-05-04T13:36:08.116Z,14.50
2023-05-04T13:38:35.868Z,14.51
2023-05-04T13:41:03.665Z,14.53
2023-05-04T13:43:31.945Z,14.53
2023-05-04T13:46:04.654Z,14.57
2023-05-04T13:48:35.043Z,14.60
2023-05-04T13:51:04.118Z,14.59
2023-05-04T13:53:31.927Z,14.59
2023-05-04T13:56:00.463Z,14.66
2023-05-04T13:58:28.662Z,14.72
2023-05-04T14:00:56.514Z,14.77
2023-05-04T14:03:24.289Z,14.81
2023-05-04T14:05:52.626Z,14.84
2023-05-04T14:08:20.897Z,14.85
2023-05-04T14:10:49.227Z,14.85
2023-05-04T14:13:17.095Z,14.82
2023-05-04T14:15:46.766Z,14.80
2023-05-04T14:18:14.491Z,14.81
2023-05-04T14:20:42.400Z,14.84
2023-05-04T14:23:10.729Z,14.86
2023-05-04T14:25:45.512Z,14.87
2023-05-04T14:28:13.279Z,14.84
2023-05-04T14:30:40.990Z,14.84
2023-05-04T14:33:08.961Z,14.86
2023-05-04T14:35:44.115Z,14.86
2023-05-04T14:38:13.512Z,14.88
2023-05-04T14:40:41.383Z,14.93
2023-05-04T14:43:09.088Z,15.00
2023-05-04T14:45:36.919Z,15.04
2023-05-04T14:48:05.203Z,15.05
2023-05-04T14:50:33.573Z,15.03
2023-05-04T14:53:01.850Z,14.99
2023-05-04T14:55:30.923Z,14.97
2023-05-04T14:57:58.637Z,14.95
2023-05-04T15:00:26.422Z,14.96
2023-05-04T15:02:54.178Z,14.96
2023-05-04T15:05:22.582Z,14.98
2023-05-04T15:07:50.859Z,14.96
2023-05-04T15:10:18.656Z,14.97
2023-05-04T15:12:46.402Z,14.97
2023-05-04T15:15:14.364Z,14.99
2023-05-04T15:17:42.167Z,14.99
2023-05-04T15:20:11.502Z,15.00
2023-05-04T15:22:39.661Z,14.99
2023-05-04T15:25:07.927Z,14.98
2023-05-04T15:27:35.946Z,15.01
2023-05-04T15:30:04.796Z,15.05
2023-05-04T15:32:32.876Z,15.07
2023-05-04T15:35:05.366Z,15.07
2023-05-04T15:37:34.787Z,15.08
2023-05-04T15:40:04.748Z,15.08
2023-05-04T15:42:32.770Z,15.10
2023-05-04T15:45:00.534Z,15.11
2023-05-04T15:47:28.282Z,15.14
2023-05-04T15:49:56.593Z,15.18
2023-05-04T15:52:24.931Z,15.23
2023-05-04T15:54:52.700Z,15.29
2023-05-04T15:57:20.680Z,15.37
2023-05-04T15:59:49.818Z,15.46
2023-05-04T16:02:17.868Z,15.52
2023-05-04T16:04:46.066Z,15.57
2023-05-04T16:07:14.638Z,15.58
2023-05-04T16:09:42.398Z,15.61
2023-05-04T16:12:10.113Z,15.67
2023-05-04T16:14:38.102Z,15.73
2023-05-04T16:17:05.924Z,15.81
2023-05-04T16:19:34.198Z,15.85
2023-05-04T16:22:02.383Z,15.90
2023-05-04T16:24:30.160Z,15.96
2023-05-04T16:26:59.252Z,16.00
2023-05-04T16:29:26.913Z,16.01
2023-05-04T16:31:54.620Z,15.96
2023-05-04T16:34:22.758Z,15.89
2023-05-04T16:36:51.143Z,15.82
2023-05-04T16:39:19.132Z,15.76
2023-05-04T16:41:48.369Z,15.69
2023-05-04T16:44:16.089Z,15.60
2023-05-04T16:46:43.893Z,15.52
2023-05-04T16:49:14.602Z,15.43
2023-05-04T16:51:43.511Z,15.36
2023-05-04T16:54:11.392Z,15.28
2023-05-04T16:56:39.174Z,15.20
2023-05-04T16:59:06.858Z,15.12
2023-05-04T17:01:35.473Z,15.04
2023-05-04T17:04:03.879Z,14.96
2023-05-04T17:06:32.286Z,14.89
2023-05-04T17:09:00.164Z,14.81
2023-05-04T17:11:27.913Z,14.77
2023-05-04T17:13:56.126Z,14.74
2023-05-04T17:16:23.965Z,14.69
2023-05-04T17:18:52.217Z,14.65
2023-05-04T17:21:20.727Z,14.58
2023-05-04T17:23:48.980Z,14.50
2023-05-04T17:26:16.847Z,14.38
2023-05-04T17:28:44.592Z,14.25
2023-05-04T17:31:12.788Z,14.10
2023-05-04T17:33:41.139Z,13.97
2023-05-04T17:36:12.209Z,13.84
2023-05-04T17:38:41.114Z,13.70
2023-05-04T17:41:09.938Z,13.56
2023-05-04T17:43:38.941Z,13.43
2023-05-04T17:46:06.726Z,13.30
2023-05-04T17:48:36.513Z,13.18
2023-05-04T17:51:09.089Z,13.06
2023-05-04T17:53:36.899Z,12.95
2023-05-04T17:56:04.965Z,12.82
2023-05-04T17:58:32.675Z,12.69
2023-05-04T18:01:00.346Z,12.55
2023-05-04T18:03:28.675Z,12.42
2023-05-04T18:05:57.058Z,12.30
2023-05-04T18:08:24.776Z,12.22
2023-05-04T18:10:52.452Z,12.13
2023-05-04T18:13:20.671Z,12.03
2023-05-04T18:15:48.750Z,11.95
2023-05-04T18:18:17.170Z,11.88
2023-05-04T18:20:45.500Z,11.83
2023-05-04T18:23:13.212Z,11.76
2023-05-04T18:25:40.901Z,11.67
2023-05-04T18:28:08.711Z,11.57
2023-05-04T18:30:36.522Z,11.49
2023-05-04T18:33:04.951Z,11.43
2023-05-04T18:35:33.133Z,11.38
2023-05-04T18:38:00.822Z,11.33
2023-05-04T18:40:29.251Z,11.26
2023-05-04T18:42:57.121Z,11.20
2023-05-04T18:45:25.184Z,11.14
2023-05-04T18:47:53.489Z,11.08
2023-05-04T18:50:21.958Z,11.05
2023-05-04T18:52:49.626Z,11.00
2023-05-04T18:55:17.400Z,10.98
2023-05-04T18:57:45.112Z,10.95
2023-05-04T19:00:14.049Z,10.92
2023-05-04T19:02:42.226Z,10.91
2023-05-04T19:05:11.260Z,10.89
2023-05-04T19:07:40.824Z,10.89
2023-05-04T19:10:09.470Z,10.89
2023-05-04T19:12:37.911Z,10.89
2023-05-04T19:15:06.961Z,10.89
2023-05-04T19:17:35.386Z,10.90
2023-05-04T19:20:03.645Z,10.90
2023-05-04T19:22:31.434Z,10.89
2023-05-04T19:24:59.122Z,10.88
2023-05-04T19:27:27.719Z,10.86
2023-05-04T19:29:56.481Z,10.84
2023-05-04T19:32:25.155Z,10.82
2023-05-04T19:34:53.230Z,10.79
2023-05-04T19:37:21.148Z,10.77
2023-05-04T19:39:49.272Z,10.76
2023-05-04T19:42:17.453Z,10.76
2023-05-04T19:44:45.919Z,10.74
2023-05-04T19:47:13.746Z,10.72
2023-05-04T19:49:41.665Z,10.71
2023-05-04T19:52:09.350Z,10.70
2023-05-04T19:54:38.417Z,10.68
2023-05-04T19:57:06.785Z,10.65
2023-05-04T19:59:35.788Z,10.64
2023-05-04T20:02:03.904Z,10.63
2023-05-04T20:04:31.719Z,10.61
2023-05-04T20:06:59.421Z,10.60
2023-05-04T20:09:27.207Z,10.59
2023-05-04T20:11:55.765Z,10.58
2023-05-04T20:14:24.055Z,10.57
2023-05-04T20:16:52.693Z,10.55
2023-05-04T20:19:20.859Z,10.53
2023-05-04T20:21:48.803Z,10.52
2023-05-04T20:24:17.026Z,10.49
2023-05-04T20:26:45.789Z,10.49
2023-05-04T20:29:13.965Z,10.47
2023-05-04T20:31:41.808Z,10.46
2023-05-04T20:34:09.785Z,10.45
2023-05-04T20:36:37.579Z,10.43
2023-05-04T20:39:06.879Z,10.41
2023-05-04T20:41:35.108Z,10.40
2023-05-04T20:44:04.427Z,10.38
2023-05-04T20:46:32.467Z,10.36
2023-05-04T20:49:02.923Z,10.34
2023-05-04T20:51:31.608Z,10.32
2023-05-04T20:54:00.068Z,10.30
2023-05-04T20:56:28.542Z,10.28
2023-05-04T20:58:56.765Z,10.26
2023-05-04T21:01:24.519Z,10.25
2023-05-04T21:03:52.521Z,10.24
2023-05-04T21:06:21.085Z,10.23
2023-05-04T21:08:48.777Z,10.21
2023-05-04T21:11:17.031Z,10.20
2023-05-04T21:13:45.354Z,10.19
2023-05-04T21:16:13.928Z,10.17
2023-05-04T21:18:41.866Z,10.15
2023-05-04T21:21:09.514Z,10.13
2023-05-04T21:23:37.274Z,10.11
2023-05-04T21:26:05.866Z,10.10
2023-05-04T21:28:34.187Z,10.08
2023-05-04T21:31:06.875Z,10.06
2023-05-04T21:33:36.097Z,10.03
2023-05-04T21:36:14.498Z,10.02
2023-05-04T21:38:42.934Z,10.00
2023-05-04T21:41:15.317Z,9.97
2023-05-04T21:43:44.433Z,9.93
2023-05-04T21:46:12.850Z,9.90
2023-05-04T21:48:40.869Z,9.86
2023-05-04T21:51:09.112Z,9.81
2023-05-04T21:53:37.352Z,9.77
2023-05-04T21:56:09.297Z,9.73
2023-05-04T21:58:39.776Z,9.69
2023-05-04T22:01:08.136Z,9.65
2023-05-04T22:03:36.060Z,9.60
2023-05-04T22:06:04.180Z,9.57
2023-05-04T22:08:31.916Z,9.51
2023-05-04T22:10:59.686Z,9.48
2023-05-04T22:13:27.967Z,9.45
2023-05-04T22:15:55.702Z,9.42
2023-05-04T22:18:23.846Z,9.39
2023-05-04T22:20:52.076Z,9.34
2023-05-04T22:23:20.047Z,9.28
2023-05-04T22:25:47.894Z,9.20
2023-05-04T22:28:16.182Z,9.12
2023-05-04T22:30:43.894Z,9.08
2023-05-04T22:33:11.603Z,9.05
2023-05-04T22:35:39.282Z,9.03
2023-05-04T22:38:07.036Z,8.99
2023-05-04T22:40:34.765Z,8.96
2023-05-04T22:43:02.402Z,8.91
2023-05-04T22:45:30.069Z,8.85
2023-05-04T22:47:58.406Z,8.79
2023-05-04T22:50:27.270Z,8.75
2023-05-04T22:52:55.044Z,8.74
2023-05-04T22:55:22.934Z,8.72
2023-05-04T22:57:50.726Z,8.69
2023-05-04T23:00:18.811Z,8.65
2023-05-04T23:02:47.150Z,8.61
2023-05-04T23:05:14.920Z,8.57
2023-05-04T23:07:42.708Z,8.49
2023-05-04T23:10:10.935Z,8.44
2023-05-04T23:12:38.621Z,8.41
2023-05-04T23:15:07.381Z,8.37
2023-05-04T23:17:38.376Z,8.35
2023-05-04T23:20:08.230Z,8.35
2023-05-04T23:22:36.319Z,8.32
2023-05-04T23:25:04.507Z,8.28
2023-05-04T23:27:32.203Z,8.21
2023-05-04T23:29:59.915Z,8.15
2023-05-04T23:32:27.642Z,8.11
2023-05-04T23:34:55.413Z,8.10
2023-05-04T23:37:23.244Z,8.08
2023-05-04T23:39:51.391Z,8.04
2023-05-04T23:42:19.482Z,8.03
2023-05-04T23:44:47.160Z,8.01
2023-05-04T23:47:14.881Z,7.99
2023-05-04T23:49:42.538Z,7.98
2023-05-04T23:52:10.237Z,7.91
2023-05-04T23:54:38.342Z,7.85
2023-05-04T23:57:10.168Z,7.81
2023-05-04T23:59:37.928Z,7.80
